Time;durP1;ratioP1;P1;durP2;ratioP2;P2;SDS_P1;SDS_P2;PMS_P1;PMS_P2;Temp;Humidity;BMP_temperature;BMP_pressure;BME280_temperature;BME280_humidity;BME280_pressure;Samples;Min_cycle;Max_cycle;Signal;HPM_P1;HPM_P2
2024/02/25 00:01:21;;;;;;;1999.90;999.90;;;9.00;99.90;;;;;;5052981;28;20029;-80
2024/02/25 00:03:47;;;;;;;1999.90;999.90;;;9.00;99.90;;;;;;5052183;28;20025;-80
2024/02/25 00:06:12;;;;;;;1999.90;999.90;;;8.90;99.90;;;;;;5066092;28;20021;-81
2024/02/25 00:08:38;;;;;;;1999.90;999.90;;;8.80;99.90;;;;;;5053916;28;20060;-81
2024/02/25 00:11:05;;;;;;;1999.90;999.90;;;8.80;99.90;;;;;;5055726;28;20115;-82
2024/02/25 00:13:31;;;;;;;1999.90;999.90;;;8.70;99.90;;;;;;5057304;28;20033;-80
2024/02/25 00:15:57;;;;;;;1999.90;999.90;;;8.70;99.90;;;;;;5055125;28;20029;-80
2024/02/25 00:18:23;;;;;;;1999.90;999.90;;;8.60;99.90;;;;;;5056299;28;20067;-82
2024/02/25 00:20:48;;;;;;;1999.90;999.90;;;8.50;99.90;;;;;;5058737;28;20041;-82
2024/02/25 00:23:14;;;;;;;1999.90;999.90;;;8.50;99.90;;;;;;5055221;28;20168;-80
2024/02/25 00:25:39;;;;;;;1999.90;999.90;;;8.50;99.90;;;;;;5061151;28;20021;-80
2024/02/25 00:28:06;;;;;;;1999.90;999.90;;;8.60;99.90;;;;;;5058529;28;20036;-82
2024/02/25 00:30:32;;;;;;;1999.90;999.90;;;8.60;99.90;;;;;;5055310;28;20063;-80
2024/02/25 00:32:57;;;;;;;1999.90;999.90;;;8.60;99.90;;;;;;5064409;28;20036;-81
2024/02/25 00:35:23;;;;;;;1999.90;999.90;;;8.60;99.90;;;;;;5060598;28;20029;-80
2024/02/25 00:37:49;;;;;;;1999.90;999.90;;;8.60;99.90;;;;;;5055045;28;20056;-81
2024/02/25 00:40:15;;;;;;;1999.90;999.90;;;8.60;99.90;;;;;;5063744;28;20104;-80
2024/02/25 00:42:42;;;;;;;1999.90;999.90;;;8.70;99.90;;;;;;5066731;28;20048;-80
2024/02/25 00:45:08;;;;;;;1999.90;999.90;;;8.70;99.90;;;;;;5056707;28;20032;-82
2024/02/25 00:47:36;;;;;;;1999.90;999.90;;;8.70;99.90;;;;;;5057415;28;20037;-81
2024/02/25 00:50:03;;;;;;;1999.90;999.90;;;8.70;99.90;;;;;;5060117;28;20029;-80
2024/02/25 00:52:31;;;;;;;1999.90;999.90;;;8.70;99.90;;;;;;5054987;28;20025;-81
2024/02/25 00:54:58;;;;;;;1999.90;999.90;;;8.70;99.90;;;;;;5058630;28;20029;-80
2024/02/25 00:57:24;;;;;;;1999.90;999.90;;;8.80;99.90;;;;;;5056341;28;20083;-80
2024/02/25 00:59:49;;;;;;;1999.90;999.90;;;8.80;99.90;;;;;;5055742;28;20029;-81
2024/02/25 01:02:15;;;;;;;1999.90;999.90;;;8.90;99.90;;;;;;5060808;28;20029;-82
2024/02/25 01:04:41;;;;;;;1999.90;999.90;;;8.90;99.90;;;;;;5054683;28;20029;-81
2024/02/25 01:07:09;;;;;;;1999.90;999.90;;;8.90;99.90;;;;;;5054943;28;20075;-81
2024/02/25 01:09:35;;;;;;;1999.90;999.90;;;9.00;99.90;;;;;;5057292;28;20029;-80
2024/02/25 01:12:01;;;;;;;1999.90;999.90;;;9.00;99.90;;;;;;5055875;28;20372;-80
2024/02/25 01:14:26;;;;;;;1999.90;999.90;;;9.00;99.90;;;;;;5056292;28;20029;-81
2024/02/25 01:16:54;;;;;;;1999.90;999.90;;;9.00;99.90;;;;;;5054592;28;20025;-80
2024/02/25 01:19:20;;;;;;;1999.90;999.90;;;9.00;99.90;;;;;;5053509;28;20029;-80
2024/02/25 01:21:47;;;;;;;1999.90;999.90;;;8.90;99.90;;;;;;5057567;28;20033;-80
2024/02/25 01:24:12;;;;;;;1999.90;999.90;;;8.90;99.90;;;;;;5054229;28;20052;-82
2024/02/25 01:26:41;;;;;;;1999.90;999.90;;;8.90;99.90;;;;;;5056182;28;20082;-81
2024/02/25 01:29:08;;;;;;;1999.90;999.90;;;9.00;99.90;;;;;;5053994;28;20141;-81
2024/02/25 01:31:40;;;;;;;1999.90;999.90;;;9.00;99.90;;;;;;5054116;28;20075;-82
2024/02/25 01:34:09;;;;;;;1999.90;999.90;;;9.00;99.90;;;;;;5057241;28;20033;-81
2024/02/25 01:36:34;;;;;;;1999.90;999.90;;;9.10;99.90;;;;;;5055278;28;20043;-81
2024/02/25 01:39:03;;;;;;;1999.90;999.90;;;9.10;99.90;;;;;;5055463;28;20104;-81
2024/02/25 01:41:28;;;;;;;1999.90;999.90;;;9.10;99.90;;;;;;5058048;28;20545;-80
2024/02/25 01:43:54;;;;;;;1999.90;999.90;;;9.10;99.90;;;;;;5053794;28;20060;-82
2024/02/25 01:46:20;;;;;;;1999.90;999.90;;;9.10;99.90;;;;;;5061560;28;20089;-82
2024/02/25 01:48:50;;;;;;;1999.90;999.90;;;9.20;99.90;;;;;;5057783;28;20029;-82
2024/02/25 01:51:19;;;;;;;1999.90;999.90;;;9.20;99.90;;;;;;5055359;28;20104;-80
2024/02/25 01:53:48;;;;;;;1999.90;999.90;;;9.30;99.90;;;;;;5058142;28;20108;-81
2024/02/25 01:56:14;;;;;;;1999.90;999.90;;;9.30;99.90;;;;;;5053721;28;20108;-81
2024/02/25 01:58:40;;;;;;;1999.90;999.90;;;9.40;99.90;;;;;;5053975;28;20147;-81
2024/02/25 02:01:09;;;;;;;1999.90;999.90;;;9.40;99.90;;;;;;5057362;28;20037;-83
2024/02/25 02:03:34;;;;;;;1999.90;999.90;;;9.50;99.90;;;;;;5053494;28;20171;-81
2024/02/25 02:06:00;;;;;;;1999.90;999.90;;;9.50;99.90;;;;;;5053998;28;20119;-80
2024/02/25 02:08:26;;;;;;;1999.90;999.90;;;9.60;99.90;;;;;;5065965;28;20043;-81
2024/02/25 02:10:52;;;;;;;1999.90;999.90;;;9.60;99.90;;;;;;5053524;28;20025;-81
2024/02/25 02:13:18;;;;;;;1999.90;999.90;;;9.60;99.90;;;;;;5055331;28;20029;-80
2024/02/25 02:15:44;;;;;;;1999.90;999.90;;;9.70;99.90;;;;;;5054687;28;20068;-81
2024/02/25 02:18:12;;;;;;;1999.90;999.90;;;9.70;99.90;;;;;;5054546;28;20123;-83
2024/02/25 02:20:38;;;;;;;1999.90;999.90;;;9.80;99.90;;;;;;5064461;28;20096;-80
2024/02/25 02:23:04;;;;;;;1999.90;999.90;;;9.90;99.90;;;;;;5056413;28;20051;-80
2024/02/25 02:25:30;;;;;;;1999.90;999.90;;;10.00;99.90;;;;;;5055085;28;20029;-80
2024/02/25 02:27:56;;;;;;;1999.90;999.90;;;10.00;99.90;;;;;;5065400;28;20043;-80
2024/02/25 02:30:22;;;;;;;1999.90;999.90;;;10.10;99.90;;;;;;5052884;28;20502;-80
2024/02/25 02:32:48;;;;;;;1999.90;999.90;;;10.20;99.90;;;;;;5054807;28;20021;-79
2024/02/25 02:35:13;;;;;;;1999.90;999.90;;;10.20;99.90;;;;;;5062318;28;20037;-79
2024/02/25 02:37:39;;;;;;;1999.90;999.90;;;10.40;99.90;;;;;;5052697;28;20131;-80
2024/02/25 02:40:05;;;;;;;1999.90;999.90;;;10.50;99.90;;;;;;5052862;28;20495;-83
2024/02/25 02:42:31;;;;;;;1999.90;999.90;;;10.50;99.90;;;;;;5055587;28;20039;-80
2024/02/25 02:44:58;;;;;;;1999.90;999.90;;;10.60;99.90;;;;;;5052909;28;20040;-79
2024/02/25 02:47:24;;;;;;;1999.90;999.90;;;10.70;99.90;;;;;;5052665;28;20025;-80
2024/02/25 02:49:50;;;;;;;1999.90;999.90;;;10.80;99.90;;;;;;5055749;28;20068;-80
2024/02/25 02:52:16;;;;;;;1999.90;999.90;;;10.90;99.90;;;;;;5052639;28;20028;-80
2024/02/25 02:54:42;;;;;;;1999.90;999.90;;;10.90;99.90;;;;;;5055911;28;20021;-80
2024/02/25 02:57:08;;;;;;;1999.90;999.90;;;11.00;99.90;;;;;;5051564;28;20024;-84
2024/02/25 02:59:34;;;;;;;1999.90;999.90;;;11.00;99.90;;;;;;5052388;28;20087;-80
2024/02/25 03:02:00;;;;;;;1999.90;999.90;;;11.10;99.90;;;;;;5054136;28;20040;-80
2024/02/25 03:04:28;;;;;;;1999.90;999.90;;;11.10;99.90;;;;;;5052461;28;20403;-80
2024/02/25 03:06:54;;;;;;;1999.90;999.90;;;11.10;99.90;;;;;;5053653;28;20095;-79
2024/02/25 03:09:21;;;;;;;1999.90;999.90;;;11.20;99.90;;;;;;5053318;28;20029;-84
2024/02/25 03:11:47;;;;;;;1999.90;999.90;;;11.30;99.90;;;;;;5052367;28;20542;-82
2024/02/25 03:14:12;;;;;;;1999.90;999.90;;;11.30;99.90;;;;;;5058338;28;20082;-84
2024/02/25 03:16:38;;;;;;;1999.90;999.90;;;11.40;99.90;;;;;;5052797;28;20118;-80
2024/02/25 03:19:04;;;;;;;1999.90;999.90;;;11.40;99.90;;;;;;5052222;28;20033;-80
2024/02/25 03:21:30;;;;;;;1999.90;999.90;;;11.50;99.90;;;;;;5056053;28;20033;-84
2024/02/25 03:23:55;;;;;;;1999.90;999.90;;;11.50;99.90;;;;;;5053312;28;20041;-80
2024/02/25 03:26:21;;;;;;;1999.90;999.90;;;11.60;99.90;;;;;;5054040;28;20055;-79
2024/02/25 03:28:50;;;;;;;1999.90;999.90;;;11.60;99.90;;;;;;5061671;28;20056;-79
2024/02/25 03:31:15;;;;;;;1999.90;999.90;;;11.70;99.90;;;;;;5051970;28;20021;-84
2024/02/25 03:33:41;;;;;;;1999.90;999.90;;;11.70;99.90;;;;;;5051890;28;20128;-80
2024/02/25 03:36:07;;;;;;;1999.90;999.90;;;11.80;99.90;;;;;;5055287;28;20433;-80
2024/02/25 03:38:33;;;;;;;1999.90;999.90;;;11.80;99.90;;;;;;5052562;28;20025;-79
2024/02/25 03:40:59;;;;;;;1999.90;999.90;;;11.80;99.90;;;;;;5055640;28;20028;-79
2024/02/25 03:43:25;;;;;;;1999.90;999.90;;;11.80;99.90;;;;;;5051452;28;20026;-82
2024/02/25 03:45:51;;;;;;;1999.90;999.90;;;11.90;99.90;;;;;;5053081;28;20021;-82
2024/02/25 03:48:16;;;;;;;1999.90;999.90;;;11.90;99.90;;;;;;5064389;28;20013;-79
2024/02/25 03:50:42;;;;;;;1999.90;999.90;;;11.90;99.90;;;;;;5053446;28;20483;-80
2024/02/25 03:53:08;;;;;;;1999.90;999.90;;;12.00;99.90;;;;;;5052795;28;20403;-81
2024/02/25 03:55:33;;;;;;;1999.90;999.90;;;11.90;99.90;;;;;;5053050;28;20037;-79
2024/02/25 03:57:59;;;;;;;1999.90;999.90;;;12.00;99.90;;;;;;5052201;28;20029;-80
2024/02/25 04:00:25;;;;;;;1999.90;999.90;;;12.10;99.90;;;;;;5051684;28;20025;-79
2024/02/25 04:02:51;;;;;;;1999.90;999.90;;;12.10;99.90;;;;;;5062732;28;20029;-79
2024/02/25 04:05:17;;;;;;;1999.90;999.90;;;12.10;99.90;;;;;;5051903;28;20055;-80
2024/02/25 04:07:44;;;;;;;1999.90;999.90;;;12.20;99.90;;;;;;5051601;28;20025;-81
2024/02/25 04:10:10;;;;;;;1999.90;999.90;;;12.20;99.90;;;;;;5061136;28;20033;-80
2024/02/25 04:12:40;;;;;;;1999.90;999.90;;;12.20;99.90;;;;;;5051825;28;20068;-84
2024/02/25 04:15:07;;;;;;;1999.90;999.90;;;12.20;99.90;;;;;;5056202;28;20021;-79
2024/02/25 04:17:33;;;;;;;1999.90;999.90;;;12.30;99.90;;;;;;5060332;28;20491;-79
2024/02/25 04:20:00;;;;;;;1999.90;999.90;;;12.30;99.90;;;;;;5052961;28;20057;-80
2024/02/25 04:22:26;;;;;;;1999.90;999.90;;;12.30;99.90;;;;;;5052622;28;20025;-79
2024/02/25 04:24:52;;;;;;;1999.90;999.90;;;12.30;99.90;;;;;;5051526;28;20029;-79
2024/02/25 04:27:18;;;;;;;1999.90;999.90;;;12.30;99.90;;;;;;5051750;28;20115;-79
2024/02/25 04:29:44;;;;;;;1999.90;999.90;;;12.30;99.90;;;;;;5060291;28;20029;-79
2024/02/25 04:32:10;;;;;;;1999.90;999.90;;;12.30;99.90;;;;;;5053219;28;20033;-80
2024/02/25 04:34:36;;;;;;;1999.90;999.90;;;12.20;99.90;;;;;;5051455;28;20115;-84
2024/02/25 04:37:05;;;;;;;1999.90;999.90;;;12.20;99.90;;;;;;5060820;28;20071;-79
2024/02/25 04:39:31;;;;;;;1999.90;999.90;;;12.20;99.90;;;;;;5051220;28;20403;-79
2024/02/25 04:41:58;;;;;;;1999.90;999.90;;;12.20;99.90;;;;;;5051446;28;20024;-78
2024/02/25 04:44:24;;;;;;;1999.90;999.90;;;12.20;99.90;;;;;;5053231;28;20039;-79
2024/02/25 04:46:50;;;;;;;1999.90;999.90;;;12.20;99.90;;;;;;5051536;28;20033;-79
2024/02/25 04:49:16;;;;;;;1999.90;999.90;;;12.20;99.90;;;;;;5051802;28;20025;-80
2024/02/25 04:51:43;;;;;;;1999.90;999.90;;;12.20;99.90;;;;;;5064467;28;20119;-79
2024/02/25 04:54:10;;;;;;;1999.90;999.90;;;12.20;99.90;;;;;;5051304;28;20025;-79
2024/02/25 04:56:38;;;;;;;1999.90;999.90;;;12.30;99.90;;;;;;5054865;28;20052;-84
2024/02/25 04:59:04;;;;;;;1999.90;999.90;;;12.30;99.90;;;;;;5062561;28;20025;-79
2024/02/25 05:01:30;;;;;;;1999.90;999.90;;;12.30;99.90;;;;;;5056183;28;20385;-80
2024/02/25 05:03:55;;;;;;;1999.90;999.90;;;12.30;99.90;;;;;;5054911;28;20116;-79
2024/02/25 05:06:21;;;;;;;1999.90;999.90;;;12.40;99.90;;;;;;5072031;28;20040;-83
2024/02/25 05:08:47;;;;;;;1999.90;999.90;;;12.40;99.90;;;;;;5054564;28;20021;-80
2024/02/25 05:11:13;;;;;;;1999.90;999.90;;;12.40;99.90;;;;;;5054600;28;20550;-84
2024/02/25 05:13:38;;;;;;;1999.90;999.90;;;12.50;99.90;;;;;;5065021;28;20033;-83
2024/02/25 05:16:06;;;;;;;1999.90;999.90;;;12.50;99.90;;;;;;5053464;28;20025;-79
2024/02/25 05:18:31;;;;;;;1999.90;999.90;;;12.50;99.90;;;;;;5054148;28;20064;-79
2024/02/25 05:20:57;;;;;;;1999.90;999.90;;;12.50;99.90;;;;;;5060203;28;20040;-79
2024/02/25 05:23:23;;;;;;;1999.90;999.90;;;12.60;99.90;;;;;;5054376;28;20025;-82
2024/02/25 05:25:48;;;;;;;1999.90;999.90;;;12.70;99.90;;;;;;5054235;28;20021;-79
2024/02/25 05:28:14;;;;;;;1999.90;999.90;;;12.70;99.90;;;;;;5069411;28;20033;-79
2024/02/25 05:30:40;;;;;;;1999.90;999.90;;;12.70;99.90;;;;;;5054370;28;20044;-80
2024/02/25 05:33:05;;;;;;;1999.90;999.90;;;12.70;99.90;;;;;;5054231;28;20025;-84
2024/02/25 05:35:31;;;;;;;1999.90;999.90;;;12.80;99.90;;;;;;5064171;28;20025;-79
2024/02/25 05:37:57;;;;;;;1999.90;999.90;;;12.90;99.90;;;;;;5055940;28;20024;-84
2024/02/25 05:40:22;;;;;;;1999.90;999.90;;;12.90;99.90;;;;;;5055017;28;20044;-79
2024/02/25 05:42:48;;;;;;;1999.90;999.90;;;13.00;99.90;;;;;;5057202;28;20471;-80
2024/02/25 05:45:14;;;;;;;1999.90;999.90;;;13.00;99.90;;;;;;5054297;28;20119;-79
2024/02/25 05:47:39;;;;;;;1999.90;999.90;;;13.10;99.90;;;;;;5056650;28;20129;-79
2024/02/25 05:50:05;;;;;;;1999.90;999.90;;;13.10;99.90;;;;;;5055293;28;20032;-83
2024/02/25 05:52:31;;;;;;;1999.90;999.90;;;13.10;99.90;;;;;;5053968;28;20061;-80
2024/02/25 05:54:56;;;;;;;1999.90;999.90;;;13.20;99.90;;;;;;5064779;28;20025;-79
2024/02/25 05:57:23;;;;;;;1999.90;999.90;;;13.20;99.90;;;;;;5055010;28;20403;-80
2024/02/25 05:59:49;;;;;;;1999.90;999.90;;;13.30;99.90;;;;;;5053655;28;20032;-83
2024/02/25 06:02:15;;;;;;;1999.90;999.90;;;13.30;99.90;;;;;;5078762;28;20028;-79
2024/02/25 06:04:40;;;;;;;1999.90;999.90;;;13.30;99.90;;;;;;5059800;28;20067;-80
2024/02/25 06:07:06;;;;;;;1999.90;999.90;;;13.40;99.90;;;;;;5054696;28;20021;-79
2024/02/25 06:09:33;;;;;;;1999.90;999.90;;;13.40;99.90;;;;;;5055316;28;20528;-79
2024/02/25 06:12:01;;;;;;;1999.90;999.90;;;13.40;99.90;;;;;;5054585;28;20099;-84
2024/02/25 06:14:27;;;;;;;1999.90;999.90;;;13.40;99.90;;;;;;5054731;28;20029;-79
2024/02/25 06:16:52;;;;;;;1999.90;999.90;;;13.50;99.90;;;;;;5055785;28;20040;-78
2024/02/25 06:19:21;;;;;;;1999.90;999.90;;;13.50;99.90;;;;;;5053355;28;20392;-79
2024/02/25 06:21:46;;;;;;;1999.90;999.90;;;13.50;99.90;;;;;;5054479;28;20021;-79
2024/02/25 06:24:12;;;;;;;1999.90;999.90;;;13.50;99.90;;;;;;5052064;28;20022;-82
2024/02/25 06:26:42;;;;;;;1999.90;999.90;;;13.50;99.90;;;;;;5034662;28;20025;-79
2024/02/25 06:29:07;;;;;;;1999.90;999.90;;;13.60;99.90;;;;;;5041997;28;20025;-82
2024/02/25 06:31:33;;;;;;;1999.90;999.90;;;13.60;99.90;;;;;;5035115;28;20025;-79
2024/02/25 06:33:59;;;;;;;1999.90;999.90;;;13.60;99.90;;;;;;5034459;28;20029;-79
2024/02/25 06:36:26;;;;;;;1999.90;999.90;;;13.70;99.90;;;;;;5051255;28;20025;-78
2024/02/25 06:38:52;;;;;;;1999.90;999.90;;;13.70;99.90;;;;;;5034131;28;20028;-79
2024/02/25 06:41:22;;;;;;;1999.90;999.90;;;13.70;99.90;;;;;;5033049;28;20025;-80
2024/02/25 06:43:48;;;;;;;1999.90;999.90;;;13.80;99.90;;;;;;5058968;28;20087;-79
2024/02/25 06:46:14;;;;;;;1999.90;999.90;;;13.70;99.90;;;;;;5049520;28;20029;-79
2024/02/25 06:48:40;;;;;;;1999.90;999.90;;;13.80;99.90;;;;;;5049650;28;20040;-79
2024/02/25 06:51:06;;;;;;;1999.90;999.90;;;13.80;99.90;;;;;;5052700;28;20030;-79
2024/02/25 06:53:33;;;;;;;1999.90;999.90;;;13.80;99.90;;;;;;5065365;28;20454;-79
2024/02/25 06:55:59;;;;;;;1999.90;999.90;;;13.80;99.90;;;;;;5056968;28;20009;-79
2024/02/25 06:58:25;;;;;;;1999.90;999.90;;;13.80;99.90;;;;;;5066134;28;20029;-79
2024/02/25 07:00:51;;;;;;;1999.90;999.90;;;13.80;99.90;;;;;;5065652;28;20037;-79
2024/02/25 07:03:16;;;;;;;1999.90;999.90;;;13.80;99.90;;;;;;5050857;28;20061;-78
2024/02/25 07:05:43;;;;;;;1999.90;999.90;;;13.80;99.90;;;;;;5033701;28;20136;-85
2024/02/25 07:08:09;;;;;;;1999.90;999.90;;;13.80;99.90;;;;;;5036331;28;20025;-79
2024/02/25 07:10:34;;;;;;;1999.90;999.90;;;13.70;99.90;;;;;;5055812;28;20071;-82
2024/02/25 07:13:00;;;;;;;1999.90;999.90;;;13.70;99.90;;;;;;5054466;28;20071;-79
2024/02/25 07:15:26;;;;;;;1999.90;999.90;;;13.70;99.90;;;;;;5054142;28;20032;-83
2024/02/25 07:17:53;;;;;;;1999.90;999.90;;;13.60;99.90;;;;;;5052631;28;20492;-83
2024/02/25 07:20:21;;;;;;;1999.90;999.90;;;13.60;99.90;;;;;;5053682;28;20111;-83
2024/02/25 07:22:47;;;;;;;1999.90;999.90;;;13.60;99.90;;;;;;5063665;28;20021;-78
2024/02/25 07:25:14;;;;;;;1999.90;999.90;;;13.60;99.90;;;;;;5052096;28;20094;-79
2024/02/25 07:27:40;;;;;;;1999.90;999.90;;;13.60;99.90;;;;;;5051840;28;20060;-83
2024/02/25 07:30:06;;;;;;;1999.90;999.90;;;13.70;99.90;;;;;;5057691;28;20025;-79
2024/02/25 07:32:32;;;;;;;1999.90;999.90;;;13.70;99.90;;;;;;5052121;28;20032;-79
2024/02/25 07:34:59;;;;;;;1999.90;999.90;;;13.70;99.90;;;;;;5052063;28;20029;-80
2024/02/25 07:37:26;;;;;;;1999.90;999.90;;;13.70;99.90;;;;;;5061462;28;20041;-79
2024/02/25 07:39:52;;;;;;;1999.90;999.90;;;13.70;99.90;;;;;;5051763;28;20017;-83
2024/02/25 07:42:17;;;;;;;1999.90;999.90;;;13.80;99.90;;;;;;5051986;28;20029;-79
2024/02/25 07:44:43;;;;;;;1999.90;999.90;;;13.80;99.90;;;;;;5055914;28;20388;-79
2024/02/25 07:47:09;;;;;;;1999.90;999.90;;;13.80;99.90;;;;;;5052064;28;20036;-81
2024/02/25 07:49:35;;;;;;;1999.90;999.90;;;13.80;99.90;;;;;;5059681;28;20014;-78
2024/02/25 07:52:00;;;;;;;1999.90;999.90;;;13.90;99.90;;;;;;5051824;28;20120;-79
2024/02/25 07:54:26;;;;;;;1999.90;999.90;;;13.90;99.90;;;;;;5053320;28;20388;-79
2024/02/25 07:56:52;;;;;;;1999.90;999.90;;;13.90;99.90;;;;;;5060080;28;20032;-79
2024/02/25 07:59:17;;;;;;;1999.90;999.90;;;13.90;99.90;;;;;;5051746;28;20021;-79
2024/02/25 08:01:43;;;;;;;1999.90;999.90;;;13.90;99.90;;;;;;5051771;28;20017;-79
2024/02/25 08:04:11;;;;;;;1999.90;999.90;;;14.00;99.90;;;;;;5052794;28;20045;-78
2024/02/25 08:06:37;;;;;;;1999.90;999.90;;;14.00;99.90;;;;;;5051787;28;20123;-79
2024/02/25 08:09:02;;;;;;;1999.90;999.90;;;14.00;99.90;;;;;;5054944;28;20082;-80
2024/02/25 08:11:28;;;;;;;1999.90;999.90;;;14.00;99.90;;;;;;5051711;28;20063;-80
2024/02/25 08:13:54;;;;;;;1999.90;999.90;;;14.00;99.90;;;;;;5051750;28;20032;-79
2024/02/25 08:16:19;;;;;;;1999.90;999.90;;;14.00;99.90;;;;;;5054639;28;20107;-79
2024/02/25 08:18:47;;;;;;;1999.90;999.90;;;14.10;99.90;;;;;;5052788;28;20045;-79
2024/02/25 08:21:13;;;;;;;1999.90;999.90;;;14.10;99.90;;;;;;5051684;28;20033;-84
2024/02/25 08:23:43;;;;;;;1999.90;999.90;;;14.10;99.90;;;;;;5061579;28;20074;-79
2024/02/25 08:26:09;;;;;;;1999.90;999.90;;;14.10;99.90;;;;;;5033459;28;20025;-80
2024/02/25 08:28:37;;;;;;;1999.90;999.90;;;14.10;99.90;;;;;;5052133;28;20395;-79
2024/02/25 08:31:03;;;;;;;1999.90;999.90;;;14.10;99.90;;;;;;5072736;28;20426;-79
2024/02/25 08:33:28;;;;;;;1999.90;999.90;;;14.10;99.90;;;;;;5055580;28;20029;-85
2024/02/25 08:35:54;;;;;;;1999.90;999.90;;;14.10;99.90;;;;;;5056545;28;20071;-83
2024/02/25 08:38:20;;;;;;;1999.90;999.90;;;14.20;99.90;;;;;;5057616;28;20119;-80
2024/02/25 08:40:45;;;;;;;1999.90;999.90;;;14.20;99.90;;;;;;5056554;28;20039;-80
2024/02/25 08:43:11;;;;;;;1999.90;999.90;;;14.20;99.90;;;;;;5059494;28;20031;-82
2024/02/25 08:45:37;;;;;;;1999.90;999.90;;;14.20;99.90;;;;;;5058357;28;20065;-80
2024/02/25 08:48:02;;;;;;;1999.90;999.90;;;14.20;99.90;;;;;;5056452;28;20025;-79
2024/02/25 08:50:28;;;;;;;1999.90;999.90;;;14.20;99.90;;;;;;5060534;28;20039;-78
2024/02/25 08:52:54;;;;;;;1999.90;999.90;;;14.10;99.90;;;;;;5073465;28;20543;-79
2024/02/25 08:55:20;;;;;;;1999.90;999.90;;;14.10;99.90;;;;;;5054834;28;20175;-79
2024/02/25 08:57:46;;;;;;;1999.90;999.90;;;14.10;99.90;;;;;;5054888;28;20103;-79
2024/02/25 09:00:12;;;;;;;1999.90;999.90;;;14.10;99.90;;;;;;5060887;28;20037;-79
2024/02/25 09:02:38;;;;;;;1999.90;999.90;;;14.10;99.90;;;;;;5056188;28;20025;-78
2024/02/25 09:05:05;;;;;;;1999.90;999.90;;;14.10;99.90;;;;;;5054765;28;20025;-79
2024/02/25 09:07:31;;;;;;;1999.90;999.90;;;14.10;99.90;;;;;;5055817;28;20025;-81
2024/02/25 09:09:57;;;;;;;1999.90;999.90;;;14.20;99.90;;;;;;5054579;28;20075;-83
2024/02/25 09:12:23;;;;;;;1999.90;999.90;;;14.20;99.90;;;;;;5063753;28;20005;-78
2024/02/25 09:14:49;;;;;;;1999.90;999.90;;;14.20;99.90;;;;;;5056060;28;20457;-80
2024/02/25 09:17:15;;;;;;;1999.90;999.90;;;14.20;99.90;;;;;;5053938;28;20075;-79
2024/02/25 09:19:41;;;;;;;1999.90;999.90;;;14.30;99.90;;;;;;5068433;28;20045;-79
2024/02/25 09:22:10;;;;;;;1999.90;999.90;;;14.30;99.90;;;;;;5054221;28;20057;-79
2024/02/25 09:24:35;;;;;;;1999.90;999.90;;;14.40;99.90;;;;;;5054458;28;20038;-80
2024/02/25 09:27:01;;;;;;;1999.90;999.90;;;14.40;99.90;;;;;;5063400;28;20025;-79
2024/02/25 09:29:26;;;;;;;1999.90;999.90;;;14.50;99.90;;;;;;5053824;28;20041;-79
2024/02/25 09:31:55;;;;;;;1999.90;999.90;;;14.60;99.90;;;;;;5054016;28;20025;-78
2024/02/25 09:34:21;;;;;;;1999.90;999.90;;;14.70;99.90;;;;;;5057309;28;20029;-79
2024/02/25 09:36:47;;;;;;;1999.90;999.90;;;14.80;99.90;;;;;;5055939;28;20105;-79
2024/02/25 09:39:14;;;;;;;1999.90;999.90;;;14.80;99.90;;;;;;5055662;28;20096;-79
2024/02/25 09:41:42;;;;;;;1999.90;999.90;;;14.90;99.90;;;;;;5064750;28;20025;-79
2024/02/25 09:44:22;;;;;;;1999.90;999.90;;;15.00;99.90;;;;;;5054028;28;20035;-79
2024/02/25 09:46:53;;;;;;;1999.90;999.90;;;15.10;99.90;;;;;;5054040;28;20033;-79
2024/02/25 09:49:19;;;;;;;1999.90;999.90;;;15.10;99.90;;;;;;5057375;28;20039;-79
2024/02/25 09:51:48;;;;;;;1999.90;999.90;;;15.20;99.90;;;;;;5055317;28;20396;-79
2024/02/25 09:54:15;;;;;;;1999.90;999.90;;;15.30;99.90;;;;;;5054627;28;20083;-79
2024/02/25 09:56:42;;;;;;;1999.90;999.90;;;15.40;99.90;;;;;;5053806;28;20028;-82
2024/02/25 09:59:09;;;;;;;1999.90;999.90;;;15.50;99.90;;;;;;5053731;28;20021;-79
2024/02/25 10:01:34;;;;;;;1999.90;999.90;;;15.70;99.90;;;;;;5056436;28;20086;-80
2024/02/25 10:04:00;;;;;;;1999.90;999.90;;;15.80;99.90;;;;;;5054850;28;20116;-79
2024/02/25 10:06:26;;;;;;;1999.90;999.90;;;15.80;99.90;;;;;;5056755;28;20124;-80
2024/02/25 10:08:52;;;;;;;1999.90;999.90;;;16.00;99.90;;;;;;5056375;28;20017;-80
2024/02/25 10:11:18;;;;;;;1999.90;999.90;;;16.00;99.90;;;;;;5053567;28;20051;-80
2024/02/25 10:13:48;;;;;;;1999.90;999.90;;;16.20;99.90;;;;;;5063639;28;20032;-79
2024/02/25 10:16:17;;;;;;;1999.90;999.90;;;16.30;99.90;;;;;;5056351;28;20033;-79
2024/02/25 10:18:44;;;;;;;1999.90;999.90;;;16.40;99.90;;;;;;5053099;28;20051;-79
2024/02/25 10:21:11;;;;;;;1999.90;999.90;;;16.50;99.90;;;;;;5057107;28;20037;-79
2024/02/25 10:23:37;;;;;;;1999.90;999.90;;;16.60;99.90;;;;;;5053234;28;20029;-79
2024/02/25 10:26:13;;;;;;;1999.90;999.90;;;16.50;99.90;;;;;;5054722;28;20079;-79
2024/02/25 10:28:39;;;;;;;1999.90;999.90;;;16.50;99.90;;;;;;5055401;28;20025;-79
2024/02/25 10:31:05;;;;;;;1999.90;999.90;;;16.40;99.90;;;;;;5053111;28;20025;-79
2024/02/25 10:33:31;;;;;;;1999.90;999.90;;;16.40;99.90;;;;;;5055191;28;20032;-79
2024/02/25 10:36:16;;;;;;;1999.90;999.90;;;16.40;99.90;;;;;;5058205;28;20033;-80
2024/02/25 10:38:45;;;;;;;1999.90;999.90;;;16.40;99.90;;;;;;5052964;28;20035;-78
2024/02/25 10:41:13;;;;;;;1999.90;999.90;;;16.30;99.90;;;;;;5054449;28;20041;-84
2024/02/25 10:43:39;;;;;;;1999.90;999.90;;;16.20;99.90;;;;;;5052908;28;20057;-79
2024/02/25 10:46:16;;;;;;;1999.90;999.90;;;16.20;99.90;;;;;;5053105;28;20025;-79
2024/02/25 10:48:42;;;;;;;1999.90;999.90;;;16.10;99.90;;;;;;5054789;28;20036;-79
2024/02/25 10:51:10;;;;;;;1999.90;999.90;;;16.10;99.90;;;;;;5052883;28;20017;-79
2024/02/25 10:53:41;;;;;;;1999.90;999.90;;;16.10;99.90;;;;;;5057334;28;20013;-81
2024/02/25 10:56:10;;;;;;;1999.90;999.90;;;16.00;99.90;;;;;;5055587;28;20130;-79
2024/02/25 10:58:36;;;;;;;1999.90;999.90;;;15.90;99.90;;;;;;5052516;28;20021;-79
2024/02/25 11:01:02;;;;;;;1999.90;999.90;;;15.90;99.90;;;;;;5055691;28;20033;-79
2024/02/25 11:03:29;;;;;;;1999.90;999.90;;;16.00;99.90;;;;;;5052481;28;20036;-79
2024/02/25 11:05:55;;;;;;;1999.90;999.90;;;16.00;99.90;;;;;;5052361;28;20128;-79
2024/02/25 11:08:28;;;;;;;1999.90;999.90;;;16.00;99.90;;;;;;5054457;28;20061;-79
2024/02/25 11:10:58;;;;;;;1999.90;999.90;;;16.00;99.90;;;;;;5052390;28;20079;-80
2024/02/25 11:13:24;;;;;;;1999.90;999.90;;;16.00;99.90;;;;;;5054325;28;20029;-79
2024/02/25 11:15:50;;;;;;;1999.90;999.90;;;16.00;99.90;;;;;;5054376;28;20091;-79
2024/02/25 11:18:26;;;;;;;1999.90;999.90;;;16.10;99.90;;;;;;5053117;28;20495;-79
2024/02/25 11:21:08;;;;;;;1999.90;999.90;;;16.00;99.90;;;;;;5058747;28;20035;-82
2024/02/25 11:23:44;;;;;;;1999.90;999.90;;;16.00;99.90;;;;;;5034090;28;20047;-80
2024/02/25 11:26:34;;;;;;;1999.90;999.90;;;15.90;99.90;;;;;;5033666;28;20017;-79
2024/02/25 11:29:16;;;;;;;1999.90;999.90;;;15.70;99.90;;;;;;5054455;28;20013;-81
2024/02/25 11:32:02;;;;;;;1999.90;999.90;;;15.60;99.90;;;;;;5053806;28;20021;-80
2024/02/25 11:34:28;;;;;;;1999.90;999.90;;;15.60;99.90;;;;;;5052365;28;20033;-79
2024/02/25 11:36:58;;;;;;;1999.90;999.90;;;15.60;99.90;;;;;;5054945;28;20100;-79
2024/02/25 11:39:26;;;;;;;1999.90;999.90;;;15.70;99.90;;;;;;5053392;28;20507;-80
2024/02/25 11:42:02;;;;;;;1999.90;999.90;;;15.60;99.90;;;;;;5051831;28;20048;-80
2024/02/25 11:44:33;;;;;;;1999.90;999.90;;;15.60;99.90;;;;;;5062159;28;20037;-79
2024/02/25 11:47:03;;;;;;;1999.90;999.90;;;15.60;99.90;;;;;;5052008;28;20028;-84
2024/02/25 11:49:30;;;;;;;1999.90;999.90;;;15.60;99.90;;;;;;5055545;28;20079;-79
2024/02/25 11:51:56;;;;;;;1999.90;999.90;;;15.50;99.90;;;;;;5054859;28;20056;-79
2024/02/25 11:54:22;;;;;;;1999.90;999.90;;;15.60;99.90;;;;;;5053196;28;20040;-79
2024/02/25 11:56:49;;;;;;;1999.90;999.90;;;15.60;99.90;;;;;;5056073;28;20062;-79
2024/02/25 11:59:16;;;;;;;1999.90;999.90;;;15.60;99.90;;;;;;5053584;28;20433;-85